Relevés horaires Semmerzake (Belgique)


Relevés horaires à Semmerzake - Mercredi 21 Juill. 2021
Heure UTC1 Température [°C] Vent [km/h] Hum. [%] Pres.4 [hPa] Visi. [Km] Nébu. [octa] Préc.5 [mm] Cond.
2m. Res. Ros. Dir.2 Vit. Moy. Raf.3
23:00 18.1 18.1 14.5 N 3.7 -- 5.6 80 1023.3(0.4/3h) 7 -- -- --
22:00 18.9 18.9 14.4 NE 3.7 -- 5.6 75 1023.3(0.7/3h) 10 -- -- --
21:00 19.7 19.7 14.3 NNO 1.9 -- 5.6 71 1023.3(0.7/3h) 16 -- -- --
20:00 21.2 21.2 13.5 NNO 1.9 -- 5.6 61 1022.8(0.3/3h) 15 -- -- --
19:00 23.0 23.0 13.4 N 3.7 -- 5.6 55 1022.7(0.0/3h) 19 -- -- --
18:00 24.6 24.6 13.5 NNE 3.7 -- 9.3 50 1022.5(-0.3/3h) 19 -- -- --
17:00 25.1 25.1 13.5 NNO 1.9 -- 7.4 49 1022.5(-0.5/3h) 18 -- -- --
16:00 25.7 25.7 13.4 ENE 3.7 -- 9.3 47 1022.7(-0.4/3h) 18 -- -- --
15:00 25.9 25.9 13.0 NNO 1.9 -- 9.3 45 1022.8(-0.4/3h) 14 -- -- --
14:00 25.7 25.7 13.6 NE 3.7 -- 9.3 47 1023(-0.4/3h) 19 -- -- --
13:00 24.9 24.9 12.6 ENE 3.7 -- 7.4 46 1023.2(-0.4/3h) 19 -- -- --
12:00 24.3 24.3 12.1 ENE 3.7 -- 9.3 46 1023.2(0.0/3h) 17 -- -- --
11:00 23.6 23.6 12.6 ENE 3.7 -- 9.3 50 1023.5(0.0/3h) 19 -- -- --
10:00 22.8 22.8 12.7 NNO 3.7 -- 7.4 53 1023.6(0.2/3h) 19 -- -- --
09:00 22.5 22.5 13.2 NNO 1.9 -- 5.6 56 1023.3(0.5/3h) 18 -- -- --
08:00 21.3 21.3 12.8 NNO 1.9 -- 5.6 58 1023.6(1.1/3h) 16 -- -- --
07:00 19.6 19.6 13.8 NNO 1.9 -- 3.7 69 1023.3(1.2/3h) 14 -- -- --
06:00 17.1 17.1 13.7 NNO 1.9 -- 3.7 80 1023(0.8/3h) 10 -- -- --
05:00 14.5 14.5 12.6 NNO 1.9 -- 3.7 88 1022.5(0.4/3h) 8 -- -- --
04:00 14.4 14.4 12.2 NNO 1.9 -- 3.7 87 1022.2(0.4/3h) 8 -- -- --
03:00 14.2 14.2 12.9 NNO 1.9 -- 3.7 92 1022(0.0/3h) 7 -- -- --
02:00 15.8 15.8 13.2 NNO 1.9 -- 3.7 85 1022(-0.1/3h) 9 -- -- --
01:00 16.6 16.6 13.7 NNO 1.9 -- 3.7 83 1021.7(0.0/3h) 10 -- -- --
00:00 16.8 16.8 13.9 NE 3.7 -- 5.6 83 1021.8(0.3/3h) 11 -- -- --

1 Coordinated Universal Time. Actuellement il est 22:00 locale et 20:00 UTC.

2 Le vent souffle depuis la direction indiquée vers la direction oposée.

3 Les rafales max. sont disponible 40 min après l'heure du relevé.

4 Pour les stations d'altitude (plus de 600m) le géopotentiel du niveau le plus proche de la pression obligatoire est indiqué.

5 Les stations disposant d'un diffuseur peuvent indiquer "trace". Cela signifie que des précipitations ont touchés le sol mais que la quantité est inférieure à 0.1 mm.

Récapitulatif de la journée
Température [°C] Vent [km/h] Ensoleillement4 [h] Precipitations totale5 [mm] Pression [Hpa]
Min1 Max.2 Moy.3 Max. Min Max.
13.8 26.4 0 9.3 0 h 0 min 0 1021.7 1023.6

1 Température minimale relevée entre 18:00 UTC la veille et 18:00 UTC le jour donné.

2 Température maximale relevée entre 06:00 UTC le jour donné et 06:00 UTC le lendemain.

3 Vent moyen de la journée basé sur les relevés horaires.

4 Ensoleillement en heures relevé entre 06:00 UTC la veille et 06:00 UTC le jour donné.

5 Précipitations totales tombées entre 06:00 UTC la jour donné et 06:00 UTC le lendemain.

Graphiques horaires